Time;durP1;ratioP1;P1;durP2;ratioP2;P2;SDS_P1;SDS_P2;PMS_P1;PMS_P2;Temp;Humidity;BMP_temperature;BMP_pressure;BME280_temperature;BME280_humidity;BME280_pressure;Samples;Min_cycle;Max_cycle;Signal;HPM_P1;HPM_P2
2022/07/12 00:00:48;;;;;;;50.60;4.05;;;;;;;23.92;50.63;99999.22;7310015;19;130092;-38
2022/07/12 00:03:14;;;;;;;23.58;2.47;;;;;;;23.92;50.95;99991.34;7312454;19;130724;-37
2022/07/12 00:05:39;;;;;;;28.67;2.50;;;;;;;23.95;50.15;99994.50;7310021;19;129490;-37
2022/07/12 00:08:06;;;;;;;55.92;4.75;;;;;;;23.92;50.71;100001.84;7310293;19;129365;-39
2022/07/12 00:10:32;;;;;;;70.28;6.72;;;;;;;23.93;50.60;100006.94;7306504;19;129558;-36
2022/07/12 00:12:58;;;;;;;44.37;4.10;;;;;;;23.91;50.46;99998.41;7296751;19;131006;-37
2022/07/12 00:15:23;;;;;;;31.57;2.73;;;;;;;23.90;50.08;100007.25;7311980;19;129857;-40
2022/07/12 00:17:49;;;;;;;32.83;2.90;;;;;;;23.91;50.75;100001.03;7311707;19;129232;-38
2022/07/12 00:20:14;;;;;;;22.77;2.03;;;;;;;23.92;50.56;100000.06;7310348;19;129099;-39
2022/07/12 00:22:39;;;;;;;30.33;2.92;;;;;;;23.90;50.81;99996.75;7307327;19;129276;-39
2022/07/12 00:25:05;;;;;;;3.55;0.77;;;;;;;23.92;51.11;99999.22;7311872;19;129867;-40
2022/07/12 00:27:31;;;;;;;58.78;4.35;;;;;;;23.92;50.03;100010.56;7309266;19;129407;-40
2022/07/12 00:29:56;;;;;;;29.03;2.67;;;;;;;23.91;50.79;99998.41;7311566;19;129506;-38
2022/07/12 00:32:21;;;;;;;29.17;2.58;;;;;;;23.91;50.88;100008.09;7308346;19;129183;-40
2022/07/12 00:34:47;;;;;;;29.85;2.72;;;;;;;23.93;50.99;100004.31;7311373;19;129437;-41
2022/07/12 00:37:12;;;;;;;20.95;2.05;;;;;;;23.90;50.29;100012.50;7311168;19;130501;-39
2022/07/12 00:39:38;;;;;;;36.25;3.22;;;;;;;23.91;51.24;100008.09;7309867;19;130232;-41
2022/07/12 00:42:03;;;;;;;41.72;3.75;;;;;;;23.89;50.62;100010.84;7309342;19;131154;-39
2022/07/12 00:44:30;;;;;;;32.30;3.10;;;;;;;23.88;50.30;100011.81;7307071;19;130598;-39
2022/07/12 00:46:56;;;;;;;;;;;;;;;23.92;52.08;99993.97;7310778;19;129013;-40
2022/07/12 00:49:23;;;;;;;29.05;2.67;;;;;;;23.90;50.48;100001.19;7310135;19;129694;-41
2022/07/12 00:51:50;;;;;;;44.80;4.13;;;;;;;23.86;50.97;100003.28;7306982;19;129841;-39
2022/07/12 00:54:16;;;;;;;28.60;2.60;;;;;;;23.93;50.90;100022.72;7310012;19;128983;-39
2022/07/12 00:56:41;;;;;;;54.40;4.67;;;;;;;23.90;50.73;100020.38;7309342;19;129835;-39
2022/07/12 00:59:07;;;;;;;24.85;2.03;;;;;;;23.83;50.27;100005.34;7310820;19;129449;-38
2022/07/12 01:01:33;;;;;;;31.30;2.77;;;;;;;23.90;50.78;100016.94;7308173;19;131498;-41
2022/07/12 01:03:59;;;;;;;69.30;6.50;;;;;;;23.90;50.19;100017.75;7306311;19;131765;-39
2022/07/12 01:06:25;;;;;;;48.20;4.93;;;;;;;23.90;50.75;100017.75;7293286;19;131142;-37
2022/07/12 01:08:50;;;;;;;91.80;7.95;;;;;;;23.93;51.65;100025.34;7293335;19;131633;-40
2022/07/12 01:11:17;;;;;;;27.77;2.47;;;;;;;23.90;50.68;100028.25;7303300;19;131197;-40
2022/07/12 01:13:44;;;;;;;37.13;3.05;;;;;;;23.91;50.43;100024.69;7311035;19;129999;-40
2022/07/12 01:16:11;;;;;;;20.45;1.80;;;;;;;23.90;50.15;100033.50;7306907;19;129948;-39
2022/07/12 01:18:37;;;;;;;15.07;1.73;;;;;;;23.90;50.71;100023.00;7316996;19;131554;-39
2022/07/12 01:21:05;;;;;;;58.22;5.55;;;;;;;23.84;50.97;100013.09;7310111;19;130411;-35
2022/07/12 01:23:31;;;;;;;34.45;2.92;;;;;;;23.90;50.61;100030.88;7315883;19;129150;-41
2022/07/12 01:25:56;;;;;;;32.35;3.00;;;;;;;23.93;51.03;100029.78;7314335;19;129097;-38
2022/07/12 01:28:22;;;;;;;31.52;3.03;;;;;;;23.90;50.12;100027.44;7316969;19;129506;-39
2022/07/12 01:30:47;;;;;;;26.83;2.55;;;;;;;23.91;51.46;100029.09;7315491;19;129147;-39
2022/07/12 01:33:15;;;;;;;34.65;2.90;;;;;;;23.92;50.59;100028.94;7316706;19;129238;-39
2022/07/12 01:35:41;;;;;;;42.05;3.90;;;;;;;23.91;51.27;100029.94;7314633;19;130693;-40
2022/07/12 01:38:06;;;;;;;26.10;2.28;;;;;;;23.89;50.72;100031.88;7316729;19;129045;-38
2022/07/12 01:40:32;;;;;;;41.80;3.90;;;;;;;23.93;51.59;100033.22;7315353;19;129828;-40
2022/07/12 01:42:57;;;;;;;27.02;2.47;;;;;;;23.91;50.80;100029.09;7314748;19;129274;-40
2022/07/12 01:45:23;;;;;;;11.88;1.60;;;;;;;23.92;50.33;100036.00;7315216;19;130543;-39
2022/07/12 01:47:48;;;;;;;28.88;2.42;;;;;;;23.93;50.81;100037.66;7314272;19;129324;-38
2022/07/12 01:50:15;;;;;;;37.63;3.13;;;;;;;23.93;51.32;100038.47;7316402;19;129556;-39
2022/07/12 01:52:41;;;;;;;38.60;3.43;;;;;;;23.92;50.70;100036.00;7312945;19;129023;-40
2022/07/12 01:55:08;;;;;;;30.73;2.72;;;;;;;23.89;51.27;100037.13;7310193;19;130569;-39
2022/07/12 01:57:34;;;;;;;;;;;;;;;24.00;51.84;100038.75;7315624;19;130056;-38
2022/07/12 02:00:02;;;;;;;42.60;4.03;;;;;;;23.83;50.81;100029.78;7314550;19;130451;-40
2022/07/12 02:02:28;;;;;;;29.20;2.55;;;;;;;23.92;50.46;100046.50;7314273;19;129213;-39
2022/07/12 02:04:54;;;;;;;34.28;3.10;;;;;;;23.91;50.02;100050.09;7316832;19;129096;-39
2022/07/12 02:07:20;;;;;;;30.63;2.63;;;;;;;23.82;50.31;100036.03;7314487;19;130464;-39
2022/07/12 02:09:46;;;;;;;43.93;3.50;;;;;;;23.93;51.32;100056.84;7314456;19;129584;-39
2022/07/12 02:12:11;;;;;;;30.33;2.75;;;;;;;23.93;50.38;100059.47;7314171;19;129685;-40
2022/07/12 02:14:36;;;;;;;65.97;5.40;;;;;;;23.91;50.05;100058.81;7314849;19;129498;-40
2022/07/12 02:17:02;;;;;;;24.50;2.47;;;;;;;23.91;50.29;100053.56;7314264;19;129032;-38
2022/07/12 02:19:27;;;;;;;36.97;3.20;;;;;;;23.92;50.31;100054.38;7315943;19;130304;-40
2022/07/12 02:21:53;;;;;;;39.22;3.63;;;;;;;23.92;50.74;100055.22;7310411;19;129604;-40
2022/07/12 02:24:18;;;;;;;24.48;2.05;;;;;;;23.89;51.01;100047.63;7315013;19;128961;-38
2022/07/12 02:26:44;;;;;;;42.63;3.80;;;;;;;23.90;50.78;100051.91;7313410;19;130158;-38
2022/07/12 02:29:09;;;;;;;19.13;1.97;;;;;;;23.93;51.03;100059.47;7316140;19;129239;-40
2022/07/12 02:31:35;;;;;;;28.40;2.50;;;;;;;23.93;51.06;100062.09;7314080;19;129248;-37
2022/07/12 02:34:00;;;;;;;28.40;2.93;;;;;;;23.85;50.46;100050.69;7313473;19;129331;-40
2022/07/12 02:36:26;;;;;;;32.65;3.20;;;;;;;23.93;51.02;100061.31;7314995;19;129232;-40
2022/07/12 02:38:51;;;;;;;26.63;2.72;;;;;;;23.93;50.62;100063.94;7315920;19;130353;-40
2022/07/12 02:41:17;;;;;;;18.75;1.67;;;;;;;23.91;51.18;100061.44;7314702;19;129212;-39
2022/07/12 02:43:43;;;;;;;36.80;3.27;;;;;;;23.92;51.48;100063.09;7313436;19;129363;-38
2022/07/12 02:46:10;;;;;;;18.08;1.75;;;;;;;23.93;51.21;100064.72;7314703;19;131437;-39
2022/07/12 02:48:36;;;;;;;26.67;2.33;;;;;;;23.93;50.98;100058.69;7314104;19;130646;-39
2022/07/12 02:51:03;;;;;;;34.47;3.05;;;;;;;23.91;50.59;100060.59;7312499;19;129713;-39
2022/07/12 02:53:29;;;;;;;47.50;3.63;;;;;;;23.90;50.85;100051.91;7309938;19;130394;-40
2022/07/12 02:55:55;;;;;;;22.67;2.53;;;;;;;23.92;50.44;100057.84;7313336;19;130315;-39
2022/07/12 02:58:20;;;;;;;59.83;5.30;;;;;;;23.82;50.79;100036.03;7310258;19;129776;-37
2022/07/12 03:00:46;;;;;;;26.87;2.43;;;;;;;23.93;51.25;100062.09;7312105;19;129875;-38
2022/07/12 03:03:12;;;;;;;25.08;2.05;;;;;;;23.93;51.18;100056.84;7311854;19;130533;-40
2022/07/12 03:05:38;;;;;;;28.88;2.72;;;;;;;23.83;50.66;100045.56;7312184;19;130059;-37
2022/07/12 03:08:04;;;;;;;38.90;3.83;;;;;;;23.91;50.56;100061.44;7313144;19;130296;-39
2022/07/12 03:10:29;;;;;;;22.25;2.20;;;;;;;23.92;50.98;100063.09;7313697;19;129609;-39
2022/07/12 03:12:54;;;;;;;52.00;4.10;;;;;;;23.93;51.32;100056.84;7309864;19;130840;-40
2022/07/12 03:15:20;;;;;;;62.50;4.38;;;;;;;23.93;51.39;100064.72;7306046;19;130934;-37
2022/07/12 03:17:45;;;;;;;32.27;2.80;;;;;;;23.92;51.01;100065.72;7309593;19;129624;-40
2022/07/12 03:20:14;;;;;;;45.95;4.20;;;;;;;23.93;51.14;100064.72;7311762;19;129492;-39
2022/07/12 03:22:40;;;;;;;65.63;6.10;;;;;;;23.93;50.69;100056.06;7296387;19;130185;-40
2022/07/12 03:25:07;;;;;;;63.70;5.77;;;;;;;23.94;51.43;100061.16;7296350;19;129823;-40
2022/07/12 03:27:32;;;;;;;71.18;6.22;;;;;;;23.93;51.24;100059.47;7296710;19;130550;-39
2022/07/12 03:29:57;;;;;;;65.35;6.30;;;;;;;23.93;50.12;100059.47;7294928;19;129305;-39
2022/07/12 03:32:23;;;;;;;24.47;2.27;;;;;;;23.91;51.02;100063.25;7298962;19;129659;-39
2022/07/12 03:34:49;;;;;;;34.75;3.08;;;;;;;23.93;50.84;100061.31;7311154;19;129562;-38
2022/07/12 03:37:14;;;;;;;57.63;5.60;;;;;;;23.93;51.64;100069.19;7308098;19;130844;-38
2022/07/12 03:39:39;;;;;;;28.58;2.55;;;;;;;23.92;51.18;100067.50;7312117;19;129043;-40
2022/07/12 03:42:05;;;;;;;37.22;3.38;;;;;;;23.86;51.07;100052.34;7309681;19;129252;-38
2022/07/12 03:44:30;;;;;;;13.90;1.80;;;;;;;23.91;51.19;100061.44;7309226;19;129240;-40
2022/07/12 03:46:56;;;;;;;38.57;3.47;;;;;;;23.96;51.07;100068.88;7309698;19;129910;-34
2022/07/12 03:49:21;;;;;;;59.17;4.63;;;;;;;23.94;51.61;100074.28;7310200;19;129886;-38
2022/07/12 03:51:46;;;;;;;16.75;1.80;;;;;;;23.94;51.01;100081.31;7307880;19;130554;-39
2022/07/12 03:54:12;;;;;;;29.10;2.45;;;;;;;23.95;51.40;100078.56;7311682;19;130230;-39
2022/07/12 03:59:22;;;;;;;28.92;2.78;;;;;;;23.86;51.84;100063.66;7311213;19;129127;-38
2022/07/12 04:01:47;;;;;;;35.17;3.03;;;;;;;23.91;51.20;100077.19;7307394;19;129225;-40
2022/07/12 04:04:12;;;;;;;25.70;2.33;;;;;;;23.93;50.53;100080.50;7312367;19;129888;-39
2022/07/12 04:06:38;;;;;;;22.70;2.28;;;;;;;23.94;51.50;100079.53;7306932;19;130408;-38
2022/07/12 04:09:06;;;;;;;29.37;2.77;;;;;;;23.94;51.29;100082.16;7313022;19;130000;-40
2022/07/12 04:11:33;;;;;;;52.08;4.40;;;;;;;23.84;51.84;100078.72;7306666;19;129859;-37
2022/07/12 04:13:59;;;;;;;17.65;1.83;;;;;;;23.94;51.66;100092.66;7312188;19;130177;-37
2022/07/12 04:16:24;;;;;;;46.47;3.93;;;;;;;23.87;51.54;100080.22;7310707;19;130563;-35
2022/07/12 04:18:50;;;;;;;17.67;2.03;;;;;;;23.93;51.35;100100.69;7310299;19;129086;-39
2022/07/12 04:21:15;;;;;;;30.37;2.33;;;;;;;23.92;51.41;100099.03;7308401;19;129393;-39
2022/07/12 04:23:41;;;;;;;35.57;3.57;;;;;;;23.94;51.47;100097.09;7308938;19;129973;-38
2022/07/12 04:26:06;;;;;;;45.80;3.35;;;;;;;23.89;51.37;100094.91;7308409;19;130285;-39
2022/07/12 04:28:32;;;;;;;23.03;2.17;;;;;;;23.92;51.00;100096.41;7309505;19;128870;-40
2022/07/12 04:30:57;;;;;;;33.65;2.90;;;;;;;23.91;50.51;100090.34;7310733;19;129412;-39
2022/07/12 04:33:23;;;;;;;48.08;4.05;;;;;;;23.94;51.87;100092.66;7309415;19;131083;-40
2022/07/12 04:35:48;;;;;;;16.67;2.00;;;;;;;23.94;51.46;100090.03;7310788;19;130439;-38
2022/07/12 04:38:13;;;;;;;21.60;1.77;;;;;;;23.93;51.79;100101.50;7308308;19;130843;-39
2022/07/12 04:40:39;;;;;;;24.75;2.22;;;;;;;23.91;51.27;100100.84;7309016;19;130283;-38
2022/07/12 04:43:04;;;;;;;25.48;2.53;;;;;;;23.92;50.46;100099.84;7307171;19;129692;-39
2022/07/12 04:45:29;;;;;;;29.20;2.77;;;;;;;23.91;51.20;100098.22;7309371;19;130432;-38
2022/07/12 04:47:55;;;;;;;64.35;5.80;;;;;;;23.93;51.79;100111.19;7307210;19;129124;-40
2022/07/12 04:50:20;;;;;;;20.77;2.03;;;;;;;23.92;51.65;100104.28;7304392;19;131506;-39
2022/07/12 04:52:46;;;;;;;44.90;3.83;;;;;;;23.93;50.22;100105.94;7304536;19;130758;-36
2022/07/12 04:55:11;;;;;;;45.00;4.27;;;;;;;23.93;51.24;100105.94;7314489;19;130865;-38
2022/07/12 04:57:36;;;;;;;47.67;4.72;;;;;;;23.93;51.75;100104.13;7314998;19;129033;-40
2022/07/12 05:00:06;;;;;;;66.37;6.10;;;;;;;23.93;51.86;100101.50;7308265;19;130268;-39
2022/07/12 05:02:32;;;;;;;36.47;3.83;;;;;;;23.92;51.80;100105.09;7311801;19;130196;-40
2022/07/12 05:04:58;;;;;;;33.42;3.00;;;;;;;23.93;51.71;100106.75;7314129;19;130694;-39
2022/07/12 05:07:23;;;;;;;81.90;7.57;;;;;;;23.93;51.47;100106.75;7300893;19;130190;-39
2022/07/12 05:09:48;;;;;;;86.07;7.45;;;;;;;23.92;51.12;100104.28;7298443;19;130230;-35
2022/07/12 05:12:14;;;;;;;78.05;6.93;;;;;;;23.94;51.97;100108.44;7295263;19;130711;-39
2022/07/12 05:14:39;;;;;;;72.35;6.72;;;;;;;23.91;50.99;100108.72;7294304;19;131199;-35
2022/07/12 05:17:04;;;;;;;78.35;7.30;;;;;;;23.91;51.04;100108.72;7296371;19;129295;-37
2022/07/12 05:19:30;;;;;;;64.40;5.93;;;;;;;23.92;51.37;100114.78;7307509;19;131444;-40
2022/07/12 05:21:56;;;;;;;27.10;2.63;;;;;;;23.91;52.20;100108.72;7312550;19;130673;-39
2022/07/12 05:24:21;;;;;;;31.10;2.67;;;;;;;23.91;51.58;100108.72;7314521;19;130237;-39
2022/07/12 05:26:46;;;;;;;29.25;2.55;;;;;;;23.91;51.73;100108.72;7316792;19;129800;-40
2022/07/12 05:29:12;;;;;;;23.60;2.30;;;;;;;23.91;51.02;100110.50;7316931;19;129001;-40
2022/07/12 05:31:37;;;;;;;27.00;2.58;;;;;;;23.90;50.95;100114.91;7312261;19;130095;-39
2022/07/12 05:34:03;;;;;;;26.60;2.37;;;;;;;23.90;51.14;100117.53;7313235;19;129333;-40
2022/07/12 05:36:28;;;;;;;54.13;4.28;;;;;;;23.91;51.07;100116.59;7315784;19;129323;-38
2022/07/12 05:38:53;;;;;;;57.42;5.25;;;;;;;23.82;51.40;100106.94;7314109;19;129255;-40
2022/07/12 05:41:19;;;;;;;29.77;2.80;;;;;;;23.90;51.16;100122.81;7314215;19;129195;-38
2022/07/12 05:43:44;;;;;;;28.30;2.65;;;;;;;23.92;52.24;100131.38;7313830;19;129751;-40
2022/07/12 05:46:10;;;;;;;26.77;2.60;;;;;;;23.82;51.73;100108.72;7314573;19;129401;-39
2022/07/12 05:48:36;;;;;;;31.60;2.85;;;;;;;23.89;51.33;100123.78;7314895;19;129073;-39
2022/07/12 05:53:46;;;;;;;39.97;3.55;;;;;;;23.90;51.26;100120.19;7315075;19;130897;-39
2022/07/12 05:56:12;;;;;;;34.30;3.03;;;;;;;23.85;51.12;100117.16;7314784;19;129406;-40
2022/07/12 05:58:37;;;;;;;145.17;11.93;;;;;;;23.90;51.75;100128.06;7310240;19;130856;-39
2022/07/12 06:01:03;;;;;;;32.67;3.30;;;;;;;23.98;52.14;100125.56;7291634;19;130229;-39
2022/07/12 06:03:28;;;;;;;56.97;5.27;;;;;;;23.94;51.13;100124.19;7310522;19;130735;-35
2022/07/12 06:05:53;;;;;;;41.63;3.67;;;;;;;24.08;51.07;100141.34;7308099;19;129024;-39
2022/07/12 06:08:19;;;;;;;33.95;2.70;;;;;;;24.09;51.02;100128.06;7315710;19;128897;-39
2022/07/12 06:10:44;;;;;;;50.63;4.20;;;;;;;24.09;50.79;100121.97;7310281;19;130188;-37
2022/07/12 06:13:10;;;;;;;41.63;4.17;;;;;;;24.06;51.47;100132.75;7312911;19;129065;-38
2022/07/12 06:15:35;;;;;;;24.45;2.88;;;;;;;24.00;50.98;100118.38;7311513;19;129402;-39
2022/07/12 06:18:01;;;;;;;34.00;3.17;;;;;;;24.09;51.24;100143.81;7312240;19;129965;-38
2022/07/12 06:20:27;;;;;;;24.58;2.60;;;;;;;24.14;50.85;100149.47;7312396;19;129618;-39
2022/07/12 06:22:53;;;;;;;54.42;5.10;;;;;;;24.11;51.26;100152.34;7312137;19;129664;-39
2022/07/12 06:25:18;;;;;;;28.70;2.90;;;;;;;24.17;51.17;100145.72;7309769;19;130915;-39
2022/07/12 06:27:44;;;;;;;57.70;4.68;;;;;;;24.04;51.14;100135.53;7314251;19;129022;-39
2022/07/12 06:30:11;;;;;;;71.50;6.32;;;;;;;24.04;50.91;100132.91;7308225;19;130424;-40
2022/07/12 06:32:36;;;;;;;25.00;2.53;;;;;;;24.19;50.68;100144.63;7310578;19;130828;-40
2022/07/12 06:35:01;;;;;;;35.97;3.28;;;;;;;24.07;51.05;100140.50;7311989;19;129189;-39
2022/07/12 06:37:27;;;;;;;26.45;2.88;;;;;;;24.17;50.89;100158.84;7313053;19;129118;-40
2022/07/12 06:39:52;;;;;;;46.83;4.40;;;;;;;24.19;51.03;100160.38;7312905;19;130926;-37
2022/07/12 06:42:18;;;;;;;36.13;3.77;;;;;;;24.19;51.37;100164.81;7309908;19;130359;-38
2022/07/12 06:44:43;;;;;;;44.80;3.87;;;;;;;24.16;51.12;100165.09;7313755;19;130051;-39
2022/07/12 06:47:10;;;;;;;32.33;3.00;;;;;;;24.15;51.42;100153.75;7313368;19;130325;-39
2022/07/12 06:49:35;;;;;;;55.22;5.78;;;;;;;24.10;51.70;100155.13;7312084;19;130175;-40
2022/07/12 06:52:00;;;;;;;39.83;3.60;;;;;;;24.06;51.34;100165.13;7309331;19;129646;-39
2022/07/12 06:54:26;;;;;;;19.83;2.38;;;;;;;24.04;51.39;100161.81;7312203;19;129109;-39
2022/07/12 06:56:51;;;;;;;56.07;4.97;;;;;;;24.04;50.86;100169.69;7313088;19;128979;-39
2022/07/12 06:59:17;;;;;;;39.97;3.43;;;;;;;24.11;50.83;100173.38;7313445;19;129530;-38
2022/07/12 07:01:45;;;;;;;30.98;3.50;;;;;;;23.98;50.95;100151.84;7310126;19;130323;-38
2022/07/12 07:04:11;;;;;;;76.30;7.25;;;;;;;24.08;50.41;100170.22;7309051;19;129214;-36
2022/07/12 07:06:36;;;;;;;51.58;4.45;;;;;;;24.05;51.21;100173.94;7301089;19;131606;-40
2022/07/12 07:09:02;;;;;;;63.77;6.43;;;;;;;24.05;51.42;100162.59;7297756;19;130236;-35
2022/07/12 07:11:27;;;;;;;95.27;8.67;;;;;;;24.13;50.88;100165.38;7294143;19;131244;-37
2022/07/12 07:13:53;;;;;;;71.82;6.93;;;;;;;24.12;50.80;100171.59;7295498;19;129600;-35
2022/07/12 07:16:22;;;;;;;20.02;2.53;;;;;;;24.16;50.84;100171.16;7297845;19;129594;-38
2022/07/12 07:18:47;;;;;;;35.58;3.33;;;;;;;24.16;50.82;100171.16;7311595;19;131246;-38
2022/07/12 07:21:12;;;;;;;28.15;3.28;;;;;;;24.15;50.93;100169.50;7308907;19;129135;-40
2022/07/12 07:23:38;;;;;;;43.75;3.97;;;;;;;24.16;50.93;100168.53;7309721;19;129115;-39
2022/07/12 07:26:03;;;;;;;54.83;5.63;;;;;;;24.19;51.27;100175.31;7310619;19;129212;-38
2022/07/12 07:28:28;;;;;;;43.67;4.28;;;;;;;24.24;50.49;100167.84;7313340;19;129433;-39
2022/07/12 07:30:54;;;;;;;39.33;3.92;;;;;;;24.22;50.54;100165.34;7308997;19;129275;-40
2022/07/12 07:33:24;;;;;;;65.63;6.32;;;;;;;24.20;51.29;100156.78;7309148;19;129153;-36
2022/07/12 07:35:51;;;;;;;32.13;3.95;;;;;;;24.19;50.98;100170.91;7307724;19;129762;-39
2022/07/12 07:38:17;;;;;;;28.35;2.95;;;;;;;24.13;50.42;100175.88;7312665;19;129421;-39
2022/07/12 07:40:43;;;;;;;30.08;3.20;;;;;;;24.11;50.78;100172.56;7311640;19;130499;-40
2022/07/12 07:43:09;;;;;;;27.83;2.90;;;;;;;24.11;50.86;100167.31;7310659;19;129674;-38
2022/07/12 07:45:34;;;;;;;24.23;2.85;;;;;;;24.00;50.70;100165.66;7311717;19;128853;-38
2022/07/12 07:48:00;;;;;;;49.92;4.47;;;;;;;24.09;51.20;100164.84;7307557;19;130677;-37
2022/07/12 07:50:26;;;;;;;28.50;3.40;;;;;;;24.08;50.95;100172.84;7308997;19;129212;-39
2022/07/12 07:52:51;;;;;;;29.35;2.88;;;;;;;24.09;51.01;100164.84;7309713;19;129554;-40
2022/07/12 07:55:17;;;;;;;45.22;4.40;;;;;;;24.06;50.55;100159.88;7308928;19;129755;-39
2022/07/12 07:57:43;;;;;;;18.00;2.57;;;;;;;24.09;50.88;100169.25;7311781;19;131025;-39
2022/07/12 08:00:09;;;;;;;76.75;6.00;;;;;;;24.11;51.04;100162.88;7309018;19;129904;-39
2022/07/12 08:02:35;;;;;;;36.63;3.55;;;;;;;24.08;50.85;100165.78;7309736;19;129442;-39
2022/07/12 08:05:01;;;;;;;55.67;4.50;;;;;;;24.10;51.37;100160.38;7308716;19;128840;-40
2022/07/12 08:07:26;;;;;;;37.45;3.70;;;;;;;24.13;51.35;100160.94;7308825;19;130437;-41
2022/07/12 08:09:51;;;;;;;50.07;5.13;;;;;;;24.06;51.38;100153.78;7309942;19;129736;-39
2022/07/12 08:12:17;;;;;;;53.50;4.57;;;;;;;24.11;51.21;100165.50;7308223;19;128892;-39
2022/07/12 08:14:42;;;;;;;37.55;3.60;;;;;;;24.14;50.60;100170.50;7310609;19;128923;-41
2022/07/12 08:17:08;;;;;;;23.17;2.70;;;;;;;24.12;50.55;100158.44;7305583;19;130800;-40
2022/07/12 08:19:33;;;;;;;39.00;4.47;;;;;;;24.12;51.23;100155.81;7310403;19;129686;-39
2022/07/12 08:21:58;;;;;;;30.37;3.03;;;;;;;24.11;50.53;100157.63;7306927;19;129354;-40
2022/07/12 08:24:24;;;;;;;34.65;3.80;;;;;;;24.09;51.01;100159.59;7310932;19;129491;-38
2022/07/12 08:26:50;;;;;;;32.08;3.38;;;;;;;24.11;51.01;100162.88;7308076;19;129175;-38
2022/07/12 08:29:15;;;;;;;25.07;2.67;;;;;;;24.13;51.16;100160.94;7310882;19;130224;-40
2022/07/12 08:31:41;;;;;;;61.80;5.20;;;;;;;24.11;50.75;100162.88;7306389;19;129893;-41
2022/07/12 08:34:07;;;;;;;38.28;3.65;;;;;;;24.08;50.70;100168.41;7303721;19;130525;-38
2022/07/12 08:36:32;;;;;;;80.10;7.10;;;;;;;24.07;51.22;100156.25;7309201;19;129742;-40
2022/07/12 08:38:57;;;;;;;41.33;4.00;;;;;;;24.10;50.88;100145.47;7309475;19;129488;-38
2022/07/12 08:41:23;;;;;;;17.17;2.23;;;;;;;24.12;51.12;100148.78;7306646;19;130177;-36
2022/07/12 08:43:48;;;;;;;35.63;3.58;;;;;;;24.01;51.58;100141.06;7307408;19;129269;-37
2022/07/12 08:46:15;;;;;;;34.67;3.23;;;;;;;24.08;50.53;100142.13;7305904;19;129809;-39
2022/07/12 08:48:41;;;;;;;;;;;;;;;24.17;53.54;100149.19;7307834;19;129963;-39
2022/07/12 08:51:12;;;;;;;28.30;2.88;;;;;;;24.09;50.69;100143.81;7309371;19;129770;-38
2022/07/12 08:53:38;;;;;;;49.63;4.15;;;;;;;24.08;50.42;100152.66;7307834;19;129715;-40
2022/07/12 08:56:04;;;;;;;45.63;4.03;;;;;;;24.08;50.69;100163.16;7310166;19;130144;-40
2022/07/12 08:58:30;;;;;;;49.78;4.22;;;;;;;24.08;51.33;100147.41;7308847;19;130589;-40
2022/07/12 09:00:55;;;;;;;30.85;2.85;;;;;;;24.10;51.37;100145.47;7309471;19;129347;-38
2022/07/12 09:03:21;;;;;;;31.52;3.45;;;;;;;24.09;50.93;100151.69;7304943;19;129479;-40
2022/07/12 09:05:54;;;;;;;55.37;5.43;;;;;;;24.00;52.71;100142.03;7302680;19;130869;-35
2022/07/12 09:08:34;;;;;;;64.93;6.10;;;;;;;24.00;52.68;100146.44;7294355;19;130832;-39
2022/07/12 09:11:03;;;;;;;90.18;8.07;;;;;;;24.06;50.87;100157.25;7291609;19;130269;-40
2022/07/12 09:13:52;;;;;;;83.45;6.97;;;;;;;24.05;53.11;100150.31;7294295;19;130099;-39
2022/07/12 09:16:20;;;;;;;69.50;6.07;;;;;;;24.05;50.78;100163.44;7293958;19;130497;-39
2022/07/12 09:18:46;;;;;;;33.35;3.13;;;;;;;24.03;51.57;100159.31;7306431;19;130388;-39
2022/07/12 09:21:28;;;;;;;41.77;3.97;;;;;;;24.06;53.27;100165.13;7308706;19;129855;-39
2022/07/12 09:23:58;;;;;;;22.90;2.35;;;;;;;24.07;51.21;100148.38;7307616;19;130027;-40
2022/07/12 09:26:33;;;;;;;22.88;2.33;;;;;;;24.10;53.36;100150.72;7312759;19;131367;-38
2022/07/12 09:29:06;;;;;;;39.92;3.70;;;;;;;24.05;52.41;100152.94;7309352;19;130345;-40
2022/07/12 09:37:19;;;;;;;27.98;2.58;;;;;;;24.07;51.05;100150.16;7311063;19;129356;-39
2022/07/12 09:39:46;;;;;;;26.08;2.65;;;;;;;24.04;50.62;100153.91;7316628;19;130349;-40
2022/07/12 09:42:12;;;;;;;26.55;2.60;;;;;;;24.06;50.47;100149.34;7314725;19;130812;-40
2022/07/12 09:44:38;;;;;;;41.43;3.17;;;;;;;24.06;50.97;100149.34;7317678;19;129193;-41
2022/07/12 09:47:09;;;;;;;59.17;4.88;;;;;;;23.98;50.82;100130.81;7315855;19;130939;-38
2022/07/12 09:49:35;;;;;;;29.92;2.67;;;;;;;24.02;51.10;100137.47;7318236;19;130456;-38
2022/07/12 09:52:03;;;;;;;57.35;5.13;;;;;;;24.00;50.48;100131.53;7313760;19;129283;-38
2022/07/12 09:54:31;;;;;;;29.60;2.38;;;;;;;24.04;50.63;100137.31;7316644;19;129329;-40
2022/07/12 09:57:02;;;;;;;49.78;4.20;;;;;;;24.04;51.49;100134.69;7316298;19;130213;-38
2022/07/12 09:59:28;;;;;;;40.63;3.28;;;;;;;24.03;50.45;100131.22;7316785;19;132059;-41
2022/07/12 10:01:59;;;;;;;31.10;3.22;;;;;;;24.05;50.93;100134.56;7314932;19;129247;-39
2022/07/12 10:04:29;;;;;;;30.05;2.95;;;;;;;24.07;51.93;100140.50;7316702;19;129599;-39
2022/07/12 10:06:54;;;;;;;42.40;3.72;;;;;;;24.05;50.22;100141.59;7316678;19;129446;-40
2022/07/12 10:09:21;;;;;;;27.07;2.60;;;;;;;24.04;49.75;100139.94;7317433;19;130043;-40
2022/07/12 10:11:47;;;;;;;44.28;4.03;;;;;;;24.05;50.04;100126.66;7313782;19;129078;-40
2022/07/12 10:14:13;;;;;;;20.90;1.85;;;;;;;24.04;50.36;100140.78;7316087;19;129102;-40
2022/07/12 10:16:43;;;;;;;32.10;2.90;;;;;;;24.05;51.22;100142.44;7315276;19;130234;-40
2022/07/12 10:19:25;;;;;;;27.63;2.60;;;;;;;24.05;52.94;100136.34;7316014;19;129413;-40
2022/07/12 10:21:53;;;;;;;51.83;4.63;;;;;;;24.05;50.49;100133.72;7309729;19;129793;-40
2022/07/12 10:24:45;;;;;;;17.10;1.73;;;;;;;24.10;53.05;100134.94;7314468;19;128826;-40
2022/07/12 10:27:13;;;;;;;33.15;2.75;;;;;;;24.04;51.22;100135.53;7313923;19;129299;-40
2022/07/12 10:29:43;;;;;;;47.20;3.63;;;;;;;24.08;51.18;100128.19;7315376;19;129542;-39
2022/07/12 10:32:24;;;;;;;24.42;2.20;;;;;;;24.07;52.69;100124.72;7314833;19;128967;-38
2022/07/12 10:35:18;;;;;;;41.20;3.60;;;;;;;24.07;53.14;100122.09;7311268;19;130894;-39
2022/07/12 10:38:12;;;;;;;31.52;2.90;;;;;;;24.07;52.84;100123.91;7315768;19;131988;-40
2022/07/12 10:40:39;;;;;;;49.10;3.40;;;;;;;24.06;50.51;100130.13;7313185;19;129574;-41
2022/07/12 10:43:04;;;;;;;27.95;2.60;;;;;;;23.97;50.17;100117.81;7314557;19;129227;-39
2022/07/12 10:45:40;;;;;;;46.88;3.63;;;;;;;24.06;51.70;100123.09;7311242;19;129026;-39
2022/07/12 10:48:24;;;;;;;29.48;2.67;;;;;;;24.07;52.74;100122.09;7314188;19;129233;-39
2022/07/12 10:50:55;;;;;;;31.17;2.40;;;;;;;24.04;50.65;100114.53;7312797;19;130291;-40
2022/07/12 10:53:40;;;;;;;27.83;2.38;;;;;;;24.06;52.28;100117.84;7314730;19;129088;-39
2022/07/12 10:56:27;;;;;;;35.95;2.85;;;;;;;24.08;53.10;100115.06;7313045;19;129666;-40
2022/07/12 10:58:55;;;;;;;53.55;4.43;;;;;;;24.09;50.32;100130.69;7311259;19;130124;-38
2022/07/12 11:01:26;;;;;;;20.88;1.77;;;;;;;24.06;51.84;100123.09;7311209;19;131201;-38
2022/07/12 11:03:54;;;;;;;26.15;2.25;;;;;;;24.04;50.87;100108.44;7311398;19;128856;-40
2022/07/12 11:06:22;;;;;;;24.70;2.05;;;;;;;24.02;51.17;100111.19;7313583;19;129629;-39
2022/07/12 11:08:48;;;;;;;26.17;2.15;;;;;;;24.04;50.30;100117.16;7313869;19;131765;-39
2022/07/12 11:11:13;;;;;;;22.92;2.00;;;;;;;24.05;50.93;100116.16;7308727;19;130754;-40
2022/07/12 11:13:39;;;;;;;44.88;3.65;;;;;;;24.06;50.73;100112.59;7313086;19;129582;-41
2022/07/12 11:16:05;;;;;;;29.35;2.47;;;;;;;24.02;50.06;100111.19;7314594;19;130681;-39
2022/07/12 11:18:32;;;;;;;44.60;4.00;;;;;;;24.05;50.41;100116.16;7309056;19;131523;-38